sensor_id;sensor_type;location;lat;lon;timestamp;P1;durP1;ratioP1;P2;durP2;ratioP2
17991;SDS011;9121;50.926;5.340;2023-11-19T00:00:27;3.30;;;2.92;;
17991;SDS011;9121;50.926;5.340;2023-11-19T00:02:55;3.72;;;3.10;;
17991;SDS011;9121;50.926;5.340;2023-11-19T00:05:22;4.93;;;2.95;;
17991;SDS011;9121;50.926;5.340;2023-11-19T00:07:49;4.80;;;3.03;;
17991;SDS011;9121;50.926;5.340;2023-11-19T00:10:16;5.88;;;2.95;;
17991;SDS011;9121;50.926;5.340;2023-11-19T00:12:44;4.47;;;2.85;;
17991;SDS011;9121;50.926;5.340;2023-11-19T00:15:12;6.47;;;3.22;;
17991;SDS011;9121;50.926;5.340;2023-11-19T00:17:39;3.70;;;3.17;;
17991;SDS011;9121;50.926;5.340;2023-11-19T00:20:11;3.75;;;3.33;;
17991;SDS011;9121;50.926;5.340;2023-11-19T00:22:38;4.40;;;3.33;;
17991;SDS011;9121;50.926;5.340;2023-11-19T00:25:07;8.95;;;4.03;;
17991;SDS011;9121;50.926;5.340;2023-11-19T00:27:34;4.18;;;3.35;;
17991;SDS011;9121;50.926;5.340;2023-11-19T00:30:02;5.78;;;3.63;;
17991;SDS011;9121;50.926;5.340;2023-11-19T00:32:30;8.18;;;4.05;;
17991;SDS011;9121;50.926;5.340;2023-11-19T00:34:57;6.30;;;4.22;;
17991;SDS011;9121;50.926;5.340;2023-11-19T00:37:26;9.65;;;4.70;;
17991;SDS011;9121;50.926;5.340;2023-11-19T00:39:53;8.00;;;5.30;;
17991;SDS011;9121;50.926;5.340;2023-11-19T00:42:21;9.82;;;5.38;;
17991;SDS011;9121;50.926;5.340;2023-11-19T00:44:49;9.95;;;5.55;;
17991;SDS011;9121;50.926;5.340;2023-11-19T00:47:16;14.07;;;6.20;;
17991;SDS011;9121;50.926;5.340;2023-11-19T00:49:45;10.23;;;5.72;;
17991;SDS011;9121;50.926;5.340;2023-11-19T00:52:13;17.50;;;5.85;;
17991;SDS011;9121;50.926;5.340;2023-11-19T00:54:42;13.52;;;5.85;;
17991;SDS011;9121;50.926;5.340;2023-11-19T00:57:09;9.27;;;5.07;;
17991;SDS011;9121;50.926;5.340;2023-11-19T00:59:35;10.95;;;5.55;;
17991;SDS011;9121;50.926;5.340;2023-11-19T01:02:03;14.80;;;6.00;;
17991;SDS011;9121;50.926;5.340;2023-11-19T01:04:33;10.00;;;5.53;;
17991;SDS011;9121;50.926;5.340;2023-11-19T01:07:01;15.15;;;5.28;;
17991;SDS011;9121;50.926;5.340;2023-11-19T01:09:29;12.95;;;5.72;;
17991;SDS011;9121;50.926;5.340;2023-11-19T01:11:58;13.00;;;5.13;;
17991;SDS011;9121;50.926;5.340;2023-11-19T01:14:26;10.85;;;4.63;;
17991;SDS011;9121;50.926;5.340;2023-11-19T01:16:53;15.43;;;4.90;;
17991;SDS011;9121;50.926;5.340;2023-11-19T01:19:20;19.65;;;4.80;;
17991;SDS011;9121;50.926;5.340;2023-11-19T01:21:48;19.48;;;5.45;;
17991;SDS011;9121;50.926;5.340;2023-11-19T01:24:15;15.55;;;4.68;;
17991;SDS011;9121;50.926;5.340;2023-11-19T01:26:43;13.68;;;4.75;;
17991;SDS011;9121;50.926;5.340;2023-11-19T01:29:12;14.93;;;4.40;;
17991;SDS011;9121;50.926;5.340;2023-11-19T01:31:40;14.20;;;4.78;;
17991;SDS011;9121;50.926;5.340;2023-11-19T01:34:07;12.35;;;3.92;;
17991;SDS011;9121;50.926;5.340;2023-11-19T01:36:34;15.60;;;3.90;;
17991;SDS011;9121;50.926;5.340;2023-11-19T01:39:01;16.73;;;4.05;;
17991;SDS011;9121;50.926;5.340;2023-11-19T01:41:29;16.08;;;4.00;;
17991;SDS011;9121;50.926;5.340;2023-11-19T01:44:00;16.75;;;4.15;;
17991;SDS011;9121;50.926;5.340;2023-11-19T01:46:27;22.60;;;3.97;;
17991;SDS011;9121;50.926;5.340;2023-11-19T01:48:55;18.38;;;3.97;;
17991;SDS011;9121;50.926;5.340;2023-11-19T01:51:23;22.40;;;4.95;;
17991;SDS011;9121;50.926;5.340;2023-11-19T01:53:50;20.63;;;3.78;;
17991;SDS011;9121;50.926;5.340;2023-11-19T01:56:18;18.58;;;4.43;;
17991;SDS011;9121;50.926;5.340;2023-11-19T01:58:47;30.90;;;4.15;;
17991;SDS011;9121;50.926;5.340;2023-11-19T02:01:16;30.40;;;4.88;;
17991;SDS011;9121;50.926;5.340;2023-11-19T02:03:44;23.02;;;4.75;;
17991;SDS011;9121;50.926;5.340;2023-11-19T02:06:12;17.75;;;4.47;;
17991;SDS011;9121;50.926;5.340;2023-11-19T02:08:40;32.72;;;4.53;;
17991;SDS011;9121;50.926;5.340;2023-11-19T02:11:07;18.73;;;3.85;;
17991;SDS011;9121;50.926;5.340;2023-11-19T02:13:34;23.30;;;4.13;;
17991;SDS011;9121;50.926;5.340;2023-11-19T02:16:03;24.33;;;3.83;;
17991;SDS011;9121;50.926;5.340;2023-11-19T02:18:32;25.23;;;3.65;;
17991;SDS011;9121;50.926;5.340;2023-11-19T02:21:00;19.35;;;3.95;;
17991;SDS011;9121;50.926;5.340;2023-11-19T02:23:27;24.02;;;4.47;;
17991;SDS011;9121;50.926;5.340;2023-11-19T02:26:03;21.58;;;3.90;;
17991;SDS011;9121;50.926;5.340;2023-11-19T02:28:40;24.10;;;4.35;;
17991;SDS011;9121;50.926;5.340;2023-11-19T02:31:08;21.30;;;3.90;;
17991;SDS011;9121;50.926;5.340;2023-11-19T02:33:35;23.98;;;4.68;;
17991;SDS011;9121;50.926;5.340;2023-11-19T02:36:03;20.27;;;4.03;;
17991;SDS011;9121;50.926;5.340;2023-11-19T02:38:31;25.50;;;4.20;;
17991;SDS011;9121;50.926;5.340;2023-11-19T02:40:58;21.00;;;4.05;;
17991;SDS011;9121;50.926;5.340;2023-11-19T02:43:27;18.73;;;3.83;;
17991;SDS011;9121;50.926;5.340;2023-11-19T02:45:57;20.90;;;3.83;;
17991;SDS011;9121;50.926;5.340;2023-11-19T02:48:24;14.32;;;2.92;;
17991;SDS011;9121;50.926;5.340;2023-11-19T02:50:51;22.17;;;3.85;;
17991;SDS011;9121;50.926;5.340;2023-11-19T02:53:18;21.83;;;3.60;;
17991;SDS011;9121;50.926;5.340;2023-11-19T02:55:47;24.63;;;3.80;;
17991;SDS011;9121;50.926;5.340;2023-11-19T02:58:15;20.40;;;4.20;;
17991;SDS011;9121;50.926;5.340;2023-11-19T03:00:48;21.70;;;3.53;;
17991;SDS011;9121;50.926;5.340;2023-11-19T03:03:23;33.75;;;4.22;;
17991;SDS011;9121;50.926;5.340;2023-11-19T03:05:53;27.27;;;4.35;;
17991;SDS011;9121;50.926;5.340;2023-11-19T03:08:20;22.35;;;3.80;;
17991;SDS011;9121;50.926;5.340;2023-11-19T03:10:48;24.38;;;3.65;;
17991;SDS011;9121;50.926;5.340;2023-11-19T03:13:15;33.40;;;3.90;;
17991;SDS011;9121;50.926;5.340;2023-11-19T03:15:43;23.52;;;4.28;;
17991;SDS011;9121;50.926;5.340;2023-11-19T03:18:10;25.95;;;4.95;;
17991;SDS011;9121;50.926;5.340;2023-11-19T03:20:38;28.10;;;4.80;;
17991;SDS011;9121;50.926;5.340;2023-11-19T03:23:05;30.38;;;4.35;;
17991;SDS011;9121;50.926;5.340;2023-11-19T03:25:32;34.08;;;4.65;;
17991;SDS011;9121;50.926;5.340;2023-11-19T03:27:59;28.98;;;4.10;;
17991;SDS011;9121;50.926;5.340;2023-11-19T03:30:27;26.92;;;4.90;;
17991;SDS011;9121;50.926;5.340;2023-11-19T03:32:55;25.50;;;4.60;;
17991;SDS011;9121;50.926;5.340;2023-11-19T03:35:22;22.20;;;3.60;;
17991;SDS011;9121;50.926;5.340;2023-11-19T03:37:50;26.35;;;4.03;;
17991;SDS011;9121;50.926;5.340;2023-11-19T03:40:18;23.95;;;4.10;;
17991;SDS011;9121;50.926;5.340;2023-11-19T03:42:45;20.80;;;4.07;;
17991;SDS011;9121;50.926;5.340;2023-11-19T03:45:11;27.10;;;3.72;;
17991;SDS011;9121;50.926;5.340;2023-11-19T03:47:38;29.90;;;3.97;;
17991;SDS011;9121;50.926;5.340;2023-11-19T03:50:05;28.85;;;3.92;;
17991;SDS011;9121;50.926;5.340;2023-11-19T03:52:33;29.95;;;4.50;;
17991;SDS011;9121;50.926;5.340;2023-11-19T03:55:02;35.35;;;4.45;;
17991;SDS011;9121;50.926;5.340;2023-11-19T03:57:30;28.63;;;4.05;;
17991;SDS011;9121;50.926;5.340;2023-11-19T03:59:56;30.15;;;4.53;;
17991;SDS011;9121;50.926;5.340;2023-11-19T04:02:24;25.35;;;4.55;;
17991;SDS011;9121;50.926;5.340;2023-11-19T04:04:53;26.83;;;4.00;;
17991;SDS011;9121;50.926;5.340;2023-11-19T04:07:21;27.00;;;4.07;;
17991;SDS011;9121;50.926;5.340;2023-11-19T04:09:48;28.33;;;4.22;;
17991;SDS011;9121;50.926;5.340;2023-11-19T04:12:17;29.70;;;4.05;;
17991;SDS011;9121;50.926;5.340;2023-11-19T04:14:44;27.60;;;3.90;;
17991;SDS011;9121;50.926;5.340;2023-11-19T04:17:11;21.03;;;4.10;;
17991;SDS011;9121;50.926;5.340;2023-11-19T04:19:38;24.08;;;3.88;;
17991;SDS011;9121;50.926;5.340;2023-11-19T04:22:06;27.00;;;4.45;;
17991;SDS011;9121;50.926;5.340;2023-11-19T04:24:34;26.95;;;4.60;;
17991;SDS011;9121;50.926;5.340;2023-11-19T04:27:01;27.67;;;3.90;;
17991;SDS011;9121;50.926;5.340;2023-11-19T04:29:29;22.33;;;3.83;;
17991;SDS011;9121;50.926;5.340;2023-11-19T04:31:57;30.85;;;4.78;;
17991;SDS011;9121;50.926;5.340;2023-11-19T04:34:24;29.50;;;3.83;;
17991;SDS011;9121;50.926;5.340;2023-11-19T04:36:51;24.48;;;5.47;;
17991;SDS011;9121;50.926;5.340;2023-11-19T04:39:18;15.43;;;3.60;;
17991;SDS011;9121;50.926;5.340;2023-11-19T04:41:48;35.35;;;5.07;;
17991;SDS011;9121;50.926;5.340;2023-11-19T04:44:17;39.53;;;4.88;;
17991;SDS011;9121;50.926;5.340;2023-11-19T04:46:45;28.08;;;4.35;;
17991;SDS011;9121;50.926;5.340;2023-11-19T04:49:12;27.05;;;4.70;;
17991;SDS011;9121;50.926;5.340;2023-11-19T04:51:39;20.58;;;4.45;;
17991;SDS011;9121;50.926;5.340;2023-11-19T04:54:07;30.20;;;4.50;;
17991;SDS011;9121;50.926;5.340;2023-11-19T04:56:34;21.10;;;3.60;;
17991;SDS011;9121;50.926;5.340;2023-11-19T04:59:02;25.73;;;4.15;;
17991;SDS011;9121;50.926;5.340;2023-11-19T05:01:30;35.90;;;5.35;;
17991;SDS011;9121;50.926;5.340;2023-11-19T05:03:59;35.83;;;4.75;;
17991;SDS011;9121;50.926;5.340;2023-11-19T05:06:26;38.95;;;5.05;;
17991;SDS011;9121;50.926;5.340;2023-11-19T05:08:54;36.00;;;4.35;;
17991;SDS011;9121;50.926;5.340;2023-11-19T05:11:21;27.05;;;4.13;;
17991;SDS011;9121;50.926;5.340;2023-11-19T05:13:48;30.90;;;4.53;;
17991;SDS011;9121;50.926;5.340;2023-11-19T05:16:15;26.98;;;4.45;;
17991;SDS011;9121;50.926;5.340;2023-11-19T05:18:42;26.95;;;4.13;;
17991;SDS011;9121;50.926;5.340;2023-11-19T05:21:11;29.60;;;4.32;;
17991;SDS011;9121;50.926;5.340;2023-11-19T05:23:38;25.77;;;4.25;;
17991;SDS011;9121;50.926;5.340;2023-11-19T05:26:07;22.15;;;3.75;;
17991;SDS011;9121;50.926;5.340;2023-11-19T05:28:35;26.05;;;3.90;;
17991;SDS011;9121;50.926;5.340;2023-11-19T05:31:04;27.17;;;4.55;;
17991;SDS011;9121;50.926;5.340;2023-11-19T05:33:32;33.50;;;4.90;;
17991;SDS011;9121;50.926;5.340;2023-11-19T05:35:58;26.27;;;4.38;;
17991;SDS011;9121;50.926;5.340;2023-11-19T05:38:29;31.88;;;5.07;;
17991;SDS011;9121;50.926;5.340;2023-11-19T05:40:56;28.92;;;4.85;;
17991;SDS011;9121;50.926;5.340;2023-11-19T05:43:23;30.48;;;4.43;;
17991;SDS011;9121;50.926;5.340;2023-11-19T05:45:50;32.53;;;4.68;;
17991;SDS011;9121;50.926;5.340;2023-11-19T05:48:17;38.45;;;5.38;;
17991;SDS011;9121;50.926;5.340;2023-11-19T05:50:44;39.35;;;4.50;;
17991;SDS011;9121;50.926;5.340;2023-11-19T05:53:11;40.55;;;5.50;;
17991;SDS011;9121;50.926;5.340;2023-11-19T05:55:41;28.17;;;5.28;;
17991;SDS011;9121;50.926;5.340;2023-11-19T05:58:14;21.17;;;4.97;;
17991;SDS011;9121;50.926;5.340;2023-11-19T06:00:41;31.63;;;5.18;;
17991;SDS011;9121;50.926;5.340;2023-11-19T06:03:08;32.53;;;4.18;;
17991;SDS011;9121;50.926;5.340;2023-11-19T06:05:35;28.50;;;4.68;;
17991;SDS011;9121;50.926;5.340;2023-11-19T06:08:02;32.97;;;4.25;;
17991;SDS011;9121;50.926;5.340;2023-11-19T06:10:29;30.02;;;4.45;;
17991;SDS011;9121;50.926;5.340;2023-11-19T06:12:59;30.42;;;4.82;;
17991;SDS011;9121;50.926;5.340;2023-11-19T06:15:30;29.55;;;4.63;;
17991;SDS011;9121;50.926;5.340;2023-11-19T06:17:58;35.80;;;4.97;;
17991;SDS011;9121;50.926;5.340;2023-11-19T06:20:26;31.05;;;5.50;;
17991;SDS011;9121;50.926;5.340;2023-11-19T06:22:54;25.58;;;4.47;;
17991;SDS011;9121;50.926;5.340;2023-11-19T06:25:21;35.10;;;5.15;;
17991;SDS011;9121;50.926;5.340;2023-11-19T06:27:49;28.92;;;4.38;;
17991;SDS011;9121;50.926;5.340;2023-11-19T06:30:17;31.52;;;4.55;;
17991;SDS011;9121;50.926;5.340;2023-11-19T06:32:45;24.05;;;4.50;;
17991;SDS011;9121;50.926;5.340;2023-11-19T06:35:13;29.60;;;5.17;;
17991;SDS011;9121;50.926;5.340;2023-11-19T06:37:40;32.17;;;4.88;;
17991;SDS011;9121;50.926;5.340;2023-11-19T06:40:08;30.00;;;5.35;;
17991;SDS011;9121;50.926;5.340;2023-11-19T06:42:37;38.17;;;5.68;;
17991;SDS011;9121;50.926;5.340;2023-11-19T06:45:05;39.50;;;4.78;;
17991;SDS011;9121;50.926;5.340;2023-11-19T06:47:33;33.95;;;4.95;;
17991;SDS011;9121;50.926;5.340;2023-11-19T06:50:00;42.58;;;4.85;;
17991;SDS011;9121;50.926;5.340;2023-11-19T06:52:30;37.85;;;5.18;;
17991;SDS011;9121;50.926;5.340;2023-11-19T06:54:57;35.85;;;4.88;;
17991;SDS011;9121;50.926;5.340;2023-11-19T06:57:24;34.10;;;4.35;;
17991;SDS011;9121;50.926;5.340;2023-11-19T06:59:51;51.08;;;6.18;;
17991;SDS011;9121;50.926;5.340;2023-11-19T07:02:18;37.78;;;4.53;;
17991;SDS011;9121;50.926;5.340;2023-11-19T07:04:46;34.88;;;4.70;;
17991;SDS011;9121;50.926;5.340;2023-11-19T07:07:13;38.53;;;5.15;;
17991;SDS011;9121;50.926;5.340;2023-11-19T07:09:41;29.85;;;4.70;;
17991;SDS011;9121;50.926;5.340;2023-11-19T07:12:08;34.60;;;4.05;;
17991;SDS011;9121;50.926;5.340;2023-11-19T07:14:35;36.90;;;4.83;;
17991;SDS011;9121;50.926;5.340;2023-11-19T07:17:02;25.55;;;4.50;;
17991;SDS011;9121;50.926;5.340;2023-11-19T07:19:29;29.45;;;4.90;;
17991;SDS011;9121;50.926;5.340;2023-11-19T07:21:58;27.65;;;5.25;;
17991;SDS011;9121;50.926;5.340;2023-11-19T07:24:24;29.60;;;5.75;;
17991;SDS011;9121;50.926;5.340;2023-11-19T07:26:53;35.75;;;4.97;;
17991;SDS011;9121;50.926;5.340;2023-11-19T07:29:20;32.58;;;5.05;;
17991;SDS011;9121;50.926;5.340;2023-11-19T07:31:48;35.92;;;5.40;;
17991;SDS011;9121;50.926;5.340;2023-11-19T07:34:16;31.40;;;4.68;;
17991;SDS011;9121;50.926;5.340;2023-11-19T07:36:43;31.73;;;5.33;;
17991;SDS011;9121;50.926;5.340;2023-11-19T07:39:11;31.90;;;4.93;;
17991;SDS011;9121;50.926;5.340;2023-11-19T07:41:38;32.72;;;4.95;;
17991;SDS011;9121;50.926;5.340;2023-11-19T07:44:05;24.05;;;4.78;;
17991;SDS011;9121;50.926;5.340;2023-11-19T07:46:32;29.90;;;5.13;;
17991;SDS011;9121;50.926;5.340;2023-11-19T07:48:59;30.67;;;4.38;;
17991;SDS011;9121;50.926;5.340;2023-11-19T07:51:27;38.35;;;4.90;;
17991;SDS011;9121;50.926;5.340;2023-11-19T07:53:54;36.08;;;5.63;;
17991;SDS011;9121;50.926;5.340;2023-11-19T07:56:23;36.00;;;5.63;;
17991;SDS011;9121;50.926;5.340;2023-11-19T07:58:50;33.33;;;5.70;;
17991;SDS011;9121;50.926;5.340;2023-11-19T08:01:19;32.63;;;5.80;;
17991;SDS011;9121;50.926;5.340;2023-11-19T08:03:46;34.87;;;5.20;;
17991;SDS011;9121;50.926;5.340;2023-11-19T08:06:13;29.03;;;4.80;;
17991;SDS011;9121;50.926;5.340;2023-11-19T08:08:39;38.13;;;5.70;;
17991;SDS011;9121;50.926;5.340;2023-11-19T08:11:06;26.98;;;4.30;;
17991;SDS011;9121;50.926;5.340;2023-11-19T08:13:35;29.98;;;4.40;;
17991;SDS011;9121;50.926;5.340;2023-11-19T08:16:02;34.03;;;4.65;;
17991;SDS011;9121;50.926;5.340;2023-11-19T08:18:29;30.97;;;5.03;;
17991;SDS011;9121;50.926;5.340;2023-11-19T08:20:56;28.40;;;4.88;;
17991;SDS011;9121;50.926;5.340;2023-11-19T08:23:24;33.50;;;4.78;;
17991;SDS011;9121;50.926;5.340;2023-11-19T08:25:53;40.42;;;5.28;;
17991;SDS011;9121;50.926;5.340;2023-11-19T08:28:20;35.10;;;5.80;;
17991;SDS011;9121;50.926;5.340;2023-11-19T08:30:49;30.15;;;5.80;;
17991;SDS011;9121;50.926;5.340;2023-11-19T08:33:16;39.60;;;5.03;;
17991;SDS011;9121;50.926;5.340;2023-11-19T08:35:42;38.63;;;5.78;;
17991;SDS011;9121;50.926;5.340;2023-11-19T08:38:10;30.20;;;5.03;;
17991;SDS011;9121;50.926;5.340;2023-11-19T08:40:37;32.13;;;4.93;;
17991;SDS011;9121;50.926;5.340;2023-11-19T08:43:04;34.38;;;5.25;;
17991;SDS011;9121;50.926;5.340;2023-11-19T08:45:31;28.05;;;4.93;;
17991;SDS011;9121;50.926;5.340;2023-11-19T08:48:00;34.75;;;4.60;;
17991;SDS011;9121;50.926;5.340;2023-11-19T08:50:27;40.45;;;4.85;;
17991;SDS011;9121;50.926;5.340;2023-11-19T08:52:54;39.38;;;6.00;;
17991;SDS011;9121;50.926;5.340;2023-11-19T08:55:21;31.52;;;4.55;;
17991;SDS011;9121;50.926;5.340;2023-11-19T08:57:48;29.25;;;4.38;;
17991;SDS011;9121;50.926;5.340;2023-11-19T09:00:15;34.40;;;4.82;;
17991;SDS011;9121;50.926;5.340;2023-11-19T09:02:43;39.53;;;5.70;;
17991;SDS011;9121;50.926;5.340;2023-11-19T09:05:11;29.48;;;3.75;;
17991;SDS011;9121;50.926;5.340;2023-11-19T09:07:38;34.55;;;5.07;;
17991;SDS011;9121;50.926;5.340;2023-11-19T09:10:05;31.60;;;4.50;;
17991;SDS011;9121;50.926;5.340;2023-11-19T09:12:33;25.67;;;4.53;;
17991;SDS011;9121;50.926;5.340;2023-11-19T09:15:01;29.25;;;4.72;;
17991;SDS011;9121;50.926;5.340;2023-11-19T09:17:30;27.80;;;4.25;;
17991;SDS011;9121;50.926;5.340;2023-11-19T09:19:56;24.90;;;3.90;;
17991;SDS011;9121;50.926;5.340;2023-11-19T09:22:25;25.40;;;4.63;;
17991;SDS011;9121;50.926;5.340;2023-11-19T09:24:51;25.08;;;4.65;;
17991;SDS011;9121;50.926;5.340;2023-11-19T09:27:19;26.85;;;4.32;;
17991;SDS011;9121;50.926;5.340;2023-11-19T09:29:46;27.42;;;4.45;;
17991;SDS011;9121;50.926;5.340;2023-11-19T09:32:14;21.55;;;4.47;;
17991;SDS011;9121;50.926;5.340;2023-11-19T09:34:41;28.75;;;4.45;;
17991;SDS011;9121;50.926;5.340;2023-11-19T09:37:08;22.20;;;4.30;;
17991;SDS011;9121;50.926;5.340;2023-11-19T09:39:37;33.15;;;4.40;;
17991;SDS011;9121;50.926;5.340;2023-11-19T09:42:04;32.80;;;5.03;;
17991;SDS011;9121;50.926;5.340;2023-11-19T09:44:31;29.75;;;4.57;;
17991;SDS011;9121;50.926;5.340;2023-11-19T09:46:58;26.23;;;4.28;;
17991;SDS011;9121;50.926;5.340;2023-11-19T09:49:26;25.92;;;4.57;;
17991;SDS011;9121;50.926;5.340;2023-11-19T09:51:54;34.78;;;4.70;;
17991;SDS011;9121;50.926;5.340;2023-11-19T09:54:21;30.27;;;4.93;;
17991;SDS011;9121;50.926;5.340;2023-11-19T09:56:49;29.83;;;4.57;;
17991;SDS011;9121;50.926;5.340;2023-11-19T09:59:16;34.42;;;5.72;;
17991;SDS011;9121;50.926;5.340;2023-11-19T10:01:45;27.80;;;4.85;;
17991;SDS011;9121;50.926;5.340;2023-11-19T10:04:13;31.40;;;4.35;;
17991;SDS011;9121;50.926;5.340;2023-11-19T10:06:42;33.60;;;6.18;;
17991;SDS011;9121;50.926;5.340;2023-11-19T10:09:09;31.70;;;4.78;;
17991;SDS011;9121;50.926;5.340;2023-11-19T10:11:37;34.65;;;4.85;;
17991;SDS011;9121;50.926;5.340;2023-11-19T10:14:06;24.40;;;4.30;;
17991;SDS011;9121;50.926;5.340;2023-11-19T10:16:34;25.77;;;4.95;;
17991;SDS011;9121;50.926;5.340;2023-11-19T10:19:01;22.40;;;3.92;;
17991;SDS011;9121;50.926;5.340;2023-11-19T10:21:28;27.65;;;5.22;;
17991;SDS011;9121;50.926;5.340;2023-11-19T10:23:59;27.27;;;4.32;;
17991;SDS011;9121;50.926;5.340;2023-11-19T10:26:26;20.15;;;3.42;;
17991;SDS011;9121;50.926;5.340;2023-11-19T10:28:53;30.58;;;5.15;;
17991;SDS011;9121;50.926;5.340;2023-11-19T10:31:24;21.90;;;3.28;;
17991;SDS011;9121;50.926;5.340;2023-11-19T10:33:51;26.67;;;3.95;;
17991;SDS011;9121;50.926;5.340;2023-11-19T10:36:18;28.75;;;4.75;;
17991;SDS011;9121;50.926;5.340;2023-11-19T10:38:51;18.10;;;3.42;;
17991;SDS011;9121;50.926;5.340;2023-11-19T10:41:28;17.70;;;3.67;;
17991;SDS011;9121;50.926;5.340;2023-11-19T10:43:56;25.15;;;4.57;;
17991;SDS011;9121;50.926;5.340;2023-11-19T10:46:36;24.48;;;3.70;;
17991;SDS011;9121;50.926;5.340;2023-11-19T10:49:04;24.95;;;3.92;;
17991;SDS011;9121;50.926;5.340;2023-11-19T10:51:31;21.38;;;3.80;;
17991;SDS011;9121;50.926;5.340;2023-11-19T10:54:00;22.20;;;3.45;;
17991;SDS011;9121;50.926;5.340;2023-11-19T10:56:30;36.75;;;4.95;;
17991;SDS011;9121;50.926;5.340;2023-11-19T10:58:58;27.30;;;3.92;;
17991;SDS011;9121;50.926;5.340;2023-11-19T11:01:27;22.88;;;3.58;;
17991;SDS011;9121;50.926;5.340;2023-11-19T11:04:10;32.13;;;4.80;;
17991;SDS011;9121;50.926;5.340;2023-11-19T11:06:41;24.33;;;4.28;;
17991;SDS011;9121;50.926;5.340;2023-11-19T11:09:08;29.88;;;3.85;;
17991;SDS011;9121;50.926;5.340;2023-11-19T11:11:38;23.48;;;4.18;;
17991;SDS011;9121;50.926;5.340;2023-11-19T11:14:09;34.30;;;4.15;;
17991;SDS011;9121;50.926;5.340;2023-11-19T11:16:41;29.85;;;5.15;;
17991;SDS011;9121;50.926;5.340;2023-11-19T11:19:09;25.50;;;4.10;;
17991;SDS011;9121;50.926;5.340;2023-11-19T11:21:36;27.25;;;4.07;;
17991;SDS011;9121;50.926;5.340;2023-11-19T11:24:16;28.00;;;4.28;;
17991;SDS011;9121;50.926;5.340;2023-11-19T11:27:12;26.02;;;4.03;;
17991;SDS011;9121;50.926;5.340;2023-11-19T11:30:05;23.48;;;4.28;;
17991;SDS011;9121;50.926;5.340;2023-11-19T11:32:43;27.00;;;4.10;;
17991;SDS011;9121;50.926;5.340;2023-11-19T11:35:24;22.35;;;4.13;;
17991;SDS011;9121;50.926;5.340;2023-11-19T11:38:00;27.67;;;3.67;;
17991;SDS011;9121;50.926;5.340;2023-11-19T11:40:29;32.80;;;4.45;;
17991;SDS011;9121;50.926;5.340;2023-11-19T11:42:56;18.85;;;3.90;;
17991;SDS011;9121;50.926;5.340;2023-11-19T11:45:34;29.38;;;3.97;;
17991;SDS011;9121;50.926;5.340;2023-11-19T11:48:13;28.52;;;4.20;;
17991;SDS011;9121;50.926;5.340;2023-11-19T11:50:52;21.52;;;4.30;;
17991;SDS011;9121;50.926;5.340;2023-11-19T11:53:21;22.02;;;3.70;;
17991;SDS011;9121;50.926;5.340;2023-11-19T11:55:53;21.20;;;3.83;;
17991;SDS011;9121;50.926;5.340;2023-11-19T11:58:26;23.95;;;3.63;;
17991;SDS011;9121;50.926;5.340;2023-11-19T12:00:57;22.73;;;4.82;;
17991;SDS011;9121;50.926;5.340;2023-11-19T12:03:28;24.70;;;3.60;;
17991;SDS011;9121;50.926;5.340;2023-11-19T12:05:56;24.52;;;3.85;;
17991;SDS011;9121;50.926;5.340;2023-11-19T12:08:25;29.30;;;4.47;;
17991;SDS011;9121;50.926;5.340;2023-11-19T12:10:54;29.58;;;4.60;;
17991;SDS011;9121;50.926;5.340;2023-11-19T12:13:23;29.15;;;4.05;;
17991;SDS011;9121;50.926;5.340;2023-11-19T12:16:09;27.58;;;3.92;;
17991;SDS011;9121;50.926;5.340;2023-11-19T12:18:39;38.72;;;5.00;;
17991;SDS011;9121;50.926;5.340;2023-11-19T12:21:08;19.42;;;4.28;;
17991;SDS011;9121;50.926;5.340;2023-11-19T12:23:35;27.80;;;4.43;;
17991;SDS011;9121;50.926;5.340;2023-11-19T12:29:09;18.52;;;3.55;;
17991;SDS011;9121;50.926;5.340;2023-11-19T12:31:36;29.33;;;4.38;;
17991;SDS011;9121;50.926;5.340;2023-11-19T12:34:08;29.00;;;4.38;;
17991;SDS011;9121;50.926;5.340;2023-11-19T12:36:37;22.95;;;4.18;;
17991;SDS011;9121;50.926;5.340;2023-11-19T12:39:06;21.08;;;3.60;;
17991;SDS011;9121;50.926;5.340;2023-11-19T12:41:33;31.23;;;4.95;;
17991;SDS011;9121;50.926;5.340;2023-11-19T12:44:16;20.48;;;4.25;;
17991;SDS011;9121;50.926;5.340;2023-11-19T12:46:43;28.70;;;4.07;;
17991;SDS011;9121;50.926;5.340;2023-11-19T12:49:12;21.63;;;4.22;;
17991;SDS011;9121;50.926;5.340;2023-11-19T12:51:39;23.08;;;3.95;;
17991;SDS011;9121;50.926;5.340;2023-11-19T12:54:06;22.25;;;4.13;;
17991;SDS011;9121;50.926;5.340;2023-11-19T12:56:33;27.15;;;4.43;;
17991;SDS011;9121;50.926;5.340;2023-11-19T12:59:09;19.63;;;3.58;;
17991;SDS011;9121;50.926;5.340;2023-11-19T13:01:37;22.48;;;4.05;;
17991;SDS011;9121;50.926;5.340;2023-11-19T13:04:16;24.13;;;4.05;;
17991;SDS011;9121;50.926;5.340;2023-11-19T13:06:45;14.57;;;3.00;;
17991;SDS011;9121;50.926;5.340;2023-11-19T13:09:21;20.63;;;3.10;;
17991;SDS011;9121;50.926;5.340;2023-11-19T13:11:49;29.30;;;4.00;;
17991;SDS011;9121;50.926;5.340;2023-11-19T13:14:16;21.83;;;3.22;;
17991;SDS011;9121;50.926;5.340;2023-11-19T13:16:44;20.02;;;3.15;;
17991;SDS011;9121;50.926;5.340;2023-11-19T13:19:11;24.98;;;3.28;;
17991;SDS011;9121;50.926;5.340;2023-11-19T13:21:40;23.45;;;3.22;;
17991;SDS011;9121;50.926;5.340;2023-11-19T13:24:07;22.25;;;3.95;;
17991;SDS011;9121;50.926;5.340;2023-11-19T13:26:35;22.25;;;3.53;;
17991;SDS011;9121;50.926;5.340;2023-11-19T13:29:02;20.70;;;3.17;;
17991;SDS011;9121;50.926;5.340;2023-11-19T13:31:29;25.98;;;3.80;;
17991;SDS011;9121;50.926;5.340;2023-11-19T13:33:56;16.30;;;3.65;;
17991;SDS011;9121;50.926;5.340;2023-11-19T13:36:23;26.65;;;3.65;;
17991;SDS011;9121;50.926;5.340;2023-11-19T13:38:52;18.70;;;3.33;;
17991;SDS011;9121;50.926;5.340;2023-11-19T13:41:24;22.05;;;3.88;;
17991;SDS011;9121;50.926;5.340;2023-11-19T13:43:51;19.65;;;3.55;;
17991;SDS011;9121;50.926;5.340;2023-11-19T13:46:18;24.73;;;4.22;;
17991;SDS011;9121;50.926;5.340;2023-11-19T13:48:45;27.55;;;3.50;;
17991;SDS011;9121;50.926;5.340;2023-11-19T13:51:14;20.98;;;3.38;;
17991;SDS011;9121;50.926;5.340;2023-11-19T13:53:41;21.48;;;3.63;;
17991;SDS011;9121;50.926;5.340;2023-11-19T13:56:10;25.13;;;4.30;;
17991;SDS011;9121;50.926;5.340;2023-11-19T13:58:37;22.38;;;4.85;;
17991;SDS011;9121;50.926;5.340;2023-11-19T14:01:05;28.50;;;4.35;;
17991;SDS011;9121;50.926;5.340;2023-11-19T14:03:33;33.72;;;3.53;;
17991;SDS011;9121;50.926;5.340;2023-11-19T14:06:00;19.92;;;4.13;;
17991;SDS011;9121;50.926;5.340;2023-11-19T14:08:27;27.77;;;4.15;;
17991;SDS011;9121;50.926;5.340;2023-11-19T14:10:54;25.52;;;4.60;;
17991;SDS011;9121;50.926;5.340;2023-11-19T14:13:23;26.08;;;3.78;;
17991;SDS011;9121;50.926;5.340;2023-11-19T14:15:50;27.25;;;3.83;;
17991;SDS011;9121;50.926;5.340;2023-11-19T14:18:17;27.52;;;4.20;;
17991;SDS011;9121;50.926;5.340;2023-11-19T14:20:44;28.00;;;3.50;;
17991;SDS011;9121;50.926;5.340;2023-11-19T14:23:11;26.10;;;4.10;;
17991;SDS011;9121;50.926;5.340;2023-11-19T14:25:38;32.20;;;4.53;;
17991;SDS011;9121;50.926;5.340;2023-11-19T14:28:05;22.67;;;4.30;;
17991;SDS011;9121;50.926;5.340;2023-11-19T14:30:34;22.17;;;3.75;;
17991;SDS011;9121;50.926;5.340;2023-11-19T14:33:01;23.70;;;4.72;;
17991;SDS011;9121;50.926;5.340;2023-11-19T14:35:30;22.05;;;4.15;;
17991;SDS011;9121;50.926;5.340;2023-11-19T14:37:57;33.13;;;4.18;;
17991;SDS011;9121;50.926;5.340;2023-11-19T14:40:25;28.45;;;4.20;;
17991;SDS011;9121;50.926;5.340;2023-11-19T14:42:52;21.88;;;4.18;;
17991;SDS011;9121;50.926;5.340;2023-11-19T14:45:19;32.60;;;4.22;;
17991;SDS011;9121;50.926;5.340;2023-11-19T14:47:47;26.67;;;4.60;;
17991;SDS011;9121;50.926;5.340;2023-11-19T14:50:14;30.50;;;4.07;;
17991;SDS011;9121;50.926;5.340;2023-11-19T14:52:41;22.92;;;4.03;;
17991;SDS011;9121;50.926;5.340;2023-11-19T14:55:08;23.95;;;3.90;;
17991;SDS011;9121;50.926;5.340;2023-11-19T14:57:36;21.75;;;4.15;;